Time;durP1;ratioP1;P1;durP2;ratioP2;P2;SDS_P1;SDS_P2;PMS_P1;PMS_P2;Temp;Humidity;BMP_temperature;BMP_pressure;BME280_temperature;BME280_humidity;BME280_pressure;Samples;Min_cycle;Max_cycle;Signal;HPM_P1;HPM_P2
2021/03/17 00:00:10;;;;;;;0.70;0.60;;;4.30;99.90;;;5.17;100.00;-20822.78;5036021;28;20189;-67
2021/03/17 00:02:57;;;;;;;0.70;0.60;;;4.30;99.90;;;5.14;100.00;-20821.94;5036872;28;20205;-67
2021/03/17 00:05:44;;;;;;;0.70;0.60;;;4.20;99.90;;;5.10;100.00;-20820.97;5035586;28;20193;-67
2021/03/17 00:08:30;;;;;;;0.70;0.60;;;4.20;99.90;;;5.07;100.00;-20820.13;5034351;28;20725;-67
2021/03/17 00:11:16;;;;;;;0.60;0.50;;;4.20;99.90;;;5.09;100.00;-20820.69;5037012;28;20224;-68
2021/03/17 00:14:17;;;;;;;0.70;0.60;;;4.20;99.90;;;5.08;100.00;-20820.41;5036151;28;20503;-67
2021/03/17 00:17:06;;;;;;;0.70;0.60;;;4.20;99.90;;;5.07;100.00;-20820.13;5025621;28;20681;-68
2021/03/17 00:19:52;;;;;;;0.73;0.73;;;4.20;99.90;;;5.15;100.00;-20822.38;5036718;28;20224;-68
2021/03/17 00:22:38;;;;;;;0.70;0.60;;;4.20;99.90;;;5.22;100.00;-20824.19;5035518;28;20201;-67
2021/03/17 00:25:27;;;;;;;0.70;0.60;;;4.20;99.90;;;5.23;100.00;-20824.59;5036844;28;20216;-67
2021/03/17 00:28:13;;;;;;;0.70;0.60;;;4.20;99.90;;;5.27;100.00;-20825.72;5035052;28;20205;-67
2021/03/17 00:30:59;;;;;;;0.60;0.60;;;4.20;99.90;;;5.29;100.00;-20826.25;5035824;28;20452;-68
2021/03/17 00:33:45;;;;;;;0.70;0.60;;;4.30;99.90;;;5.39;100.00;-20828.91;5036367;28;20440;-68
2021/03/17 00:36:31;;;;;;;0.70;0.60;;;4.20;99.90;;;5.43;100.00;-20829.88;5035677;28;20591;-68
2021/03/17 00:39:16;;;;;;;0.60;0.50;;;4.30;99.90;;;5.37;100.00;-20828.22;5036509;28;20777;-68
2021/03/17 00:43:00;;;;;;;0.70;0.60;;;4.30;99.90;;;5.39;100.00;-20828.78;5036211;28;20201;-68
2021/03/17 00:46:10;;;;;;;0.60;0.60;;;4.30;99.90;;;5.48;100.00;-20831.28;5035390;28;20760;-69
2021/03/17 00:48:57;;;;;;;0.60;0.60;;;4.30;99.90;;;5.48;100.00;-20831.28;5036282;28;20881;-68
2021/03/17 00:51:42;;;;;;;0.60;0.50;;;4.30;99.90;;;5.39;100.00;-20828.78;5035400;28;20221;-68
2021/03/17 00:54:45;;;;;;;0.70;0.60;;;4.30;99.90;;;5.41;100.00;-20829.47;5036256;28;20432;-69
2021/03/17 00:57:49;;;;;;;0.60;0.50;;;4.30;99.90;;;5.44;100.00;-20830.31;5035443;28;20555;-68
2021/03/17 01:00:54;;;;;;;0.60;0.50;;;4.30;99.90;;;5.41;100.00;-20829.47;5035691;28;20181;-68
2021/03/17 01:03:57;;;;;;;0.60;0.60;;;4.30;99.90;;;5.48;100.00;-20831.28;5036243;28;20232;-69
2021/03/17 01:07:01;;;;;;;0.60;0.60;;;4.30;99.90;;;5.51;100.00;-20832.25;5035656;28;20236;-68
2021/03/17 01:10:11;;;;;;;0.60;0.60;;;4.40;99.90;;;5.52;100.00;-20832.53;5034837;28;20279;-69
2021/03/17 01:13:15;;;;;;;0.60;0.50;;;4.40;99.90;;;5.49;100.00;-20831.69;5034915;28;20602;-68
2021/03/17 01:16:19;;;;;;;0.70;0.60;;;4.40;99.90;;;5.55;100.00;-20833.22;5024807;28;20225;-69
2021/03/17 01:19:23;;;;;;;0.70;0.60;;;4.30;99.90;;;5.51;100.00;-20832.13;5035353;28;20252;-68
2021/03/17 01:22:27;;;;;;;0.70;0.60;;;4.30;99.90;;;5.50;100.00;-20831.84;5034956;28;20447;-69
2021/03/17 01:25:35;;;;;;;0.70;0.60;;;4.40;99.90;;;5.54;100.00;-20832.94;5035731;28;20446;-68
2021/03/17 01:28:39;;;;;;;0.60;0.60;;;4.30;99.90;;;5.55;100.00;-20833.22;5015867;28;20402;-67
2021/03/17 01:31:44;;;;;;;0.70;0.60;;;4.30;99.90;;;5.62;100.00;-20835.03;5015527;28;20201;-68
2021/03/17 01:34:47;;;;;;;0.70;0.60;;;4.30;99.90;;;5.53;100.00;-20832.66;5015759;28;20695;-67
2021/03/17 01:37:51;;;;;;;0.70;0.60;;;4.30;99.90;;;5.50;100.00;-20831.84;5034978;28;20689;-67
2021/03/17 01:40:55;;;;;;;0.60;0.50;;;4.30;99.90;;;5.48;100.00;-20831.28;5036114;28;20182;-67
2021/03/17 01:43:58;;;;;;;0.60;0.57;;;4.30;99.90;;;5.35;100.00;-20827.66;5033798;28;21244;-68
2021/03/17 01:47:03;;;;;;;0.63;0.60;;;4.30;99.90;;;5.46;100.00;-20830.88;5033736;28;20510;-68
2021/03/17 01:50:11;;;;;;;0.60;0.50;;;4.30;99.90;;;5.36;100.00;-20827.94;5035244;28;20293;-68
2021/03/17 01:53:18;;;;;;;0.60;0.60;;;4.30;99.90;;;5.40;100.00;-20829.19;5034786;28;20266;-67
2021/03/17 01:56:22;;;;;;;0.67;0.60;;;4.30;99.90;;;5.37;100.00;-20828.34;5034735;28;20774;-67
2021/03/17 01:59:26;;;;;;;0.70;0.60;;;4.30;99.90;;;5.42;100.00;-20829.75;5032298;28;20533;-67
2021/03/17 02:02:31;;;;;;;0.60;0.50;;;4.30;99.90;;;5.40;100.00;-20829.06;5034618;28;20440;-69
2021/03/17 02:05:37;;;;;;;0.70;0.60;;;4.30;99.90;;;5.37;100.00;-20828.34;5034341;28;20244;-69
2021/03/17 02:08:43;;;;;;;1.77;1.67;;;4.30;99.90;;;5.36;100.00;-20827.94;5025608;28;20205;-67
2021/03/17 02:12:00;;;;;;;0.70;0.60;;;4.30;99.90;;;5.37;100.00;-20828.22;5034403;28;20247;-68
2021/03/17 02:15:14;;;;;;;0.70;0.60;;;4.30;99.90;;;5.32;100.00;-20826.97;5035292;28;20185;-67
2021/03/17 02:18:30;;;;;;;0.70;0.60;;;4.30;99.90;;;5.26;100.00;-20825.44;5015068;28;20654;-68
2021/03/17 02:22:19;;;;;;;0.70;0.65;;;4.30;99.90;;;5.37;100.00;-20828.22;5024417;28;20716;-67
2021/03/17 02:26:03;;;;;;;0.70;0.70;;;4.30;99.90;;;5.36;100.00;-20827.94;5019947;28;20263;-67
2021/03/17 02:29:52;;;;;;;0.70;0.60;;;4.30;99.90;;;5.41;100.00;-20829.47;5018249;28;20675;-67
2021/03/17 02:33:45;;;;;;;0.60;0.60;;;4.30;99.90;;;5.41;100.00;-20829.47;5034559;28;20596;-67
2021/03/17 02:36:53;;;;;;;0.70;0.60;;;4.30;99.90;;;5.44;100.00;-20830.16;5023722;28;20196;-68
2021/03/17 02:40:05;;;;;;;0.67;0.60;;;4.30;99.90;;;5.41;100.00;-20829.47;5033237;28;20439;-67
2021/03/17 02:43:12;;;;;;;0.70;0.60;;;4.30;99.90;;;5.41;100.00;-20829.47;5025249;28;20412;-68
2021/03/17 02:46:17;;;;;;;0.70;0.60;;;4.30;99.90;;;5.32;100.00;-20827.09;5023657;28;20256;-67
2021/03/17 02:49:27;;;;;;;0.70;0.60;;;4.30;99.90;;;5.37;100.00;-20828.22;5014409;28;20233;-68
2021/03/17 02:52:37;;;;;;;0.60;0.60;;;4.30;99.90;;;5.37;100.00;-20828.22;5040083;28;20733;-68
2021/03/17 02:55:47;;;;;;;0.60;0.50;;;4.30;99.90;;;5.43;100.00;-20830.03;5033936;28;20463;-68
2021/03/17 02:58:53;;;;;;;1.90;1.25;;;4.30;99.90;;;5.42;100.00;-20829.75;5033320;28;20452;-68
2021/03/17 03:02:00;;;;;;;0.60;0.60;;;4.30;99.90;;;5.38;100.00;-20828.50;5033114;28;20209;-68
2021/03/17 03:05:09;;;;;;;0.60;0.50;;;4.30;99.90;;;5.44;100.00;-20830.16;5034040;28;20262;-68
2021/03/17 03:08:14;;;;;;;0.60;0.60;;;4.30;99.90;;;5.44;100.00;-20830.16;5026805;28;20278;-67
2021/03/17 03:11:19;;;;;;;0.70;0.57;;;4.30;99.90;;;5.47;100.00;-20831.00;5032956;28;20256;-67
2021/03/17 03:14:25;;;;;;;0.83;0.83;;;4.30;99.90;;;5.54;100.00;-20832.94;5033609;28;20651;-67
2021/03/17 03:17:29;;;;;;;0.60;0.60;;;4.30;99.90;;;5.51;100.00;-20832.13;5031643;28;20482;-67
2021/03/17 03:20:36;;;;;;;0.60;0.60;;;4.30;99.90;;;5.52;100.00;-20832.38;5032442;28;20240;-68
2021/03/17 03:23:40;;;;;;;0.60;0.60;;;4.30;99.90;;;5.60;100.00;-20834.47;5031862;28;20252;-67
2021/03/17 03:26:46;;;;;;;0.60;0.50;;;4.30;99.90;;;5.49;100.00;-20831.69;5033366;28;20209;-69
2021/03/17 03:29:51;;;;;;;0.88;0.88;;;4.30;99.90;;;5.43;100.00;-20829.88;5017657;28;20355;-68
2021/03/17 03:32:55;;;;;;;0.60;0.50;;;4.30;99.90;;;5.45;100.00;-20830.44;5032856;28;20178;-67
2021/03/17 03:35:59;;;;;;;0.60;0.50;;;4.30;99.90;;;5.37;100.00;-20828.34;5026804;28;20672;-69
2021/03/17 03:39:04;;;;;;;0.60;0.50;;;4.30;99.90;;;5.38;100.00;-20828.50;5033530;28;20186;-67
2021/03/17 03:42:09;;;;;;;0.68;0.60;;;4.30;99.90;;;5.36;100.00;-20828.06;5033168;28;20244;-68
2021/03/17 03:45:16;;;;;;;0.68;0.60;;;4.30;99.90;;;5.41;100.00;-20829.31;5032787;28;20331;-67
2021/03/17 03:48:20;;;;;;;0.60;0.50;;;4.30;99.90;;;5.38;100.00;-20828.50;5033357;28;20271;-69
2021/03/17 03:51:24;;;;;;;0.60;0.50;;;4.20;99.90;;;5.54;100.00;-20832.94;5031445;28;20205;-68
2021/03/17 03:54:37;;;;;;;0.60;0.50;;;4.20;99.90;;;5.47;100.00;-20831.00;5033406;28;20527;-67
2021/03/17 03:57:46;;;;;;;0.60;0.50;;;4.30;99.90;;;5.22;100.00;-20824.31;5032734;28;20315;-68
2021/03/17 04:00:52;;;;;;;4.67;1.10;;;4.20;99.90;;;5.19;100.00;-20823.50;5029053;28;20542;-68
2021/03/17 04:04:03;;;;;;;0.60;0.50;;;4.20;99.90;;;5.24;100.00;-20824.88;5033156;28;20471;-68
2021/03/17 04:07:11;;;;;;;0.60;0.50;;;4.20;99.90;;;5.14;100.00;-20822.09;5030697;28;20194;-69
2021/03/17 04:10:19;;;;;;;0.70;0.60;;;4.10;99.90;;;5.15;100.00;-20822.22;5026544;28;20241;-69
2021/03/17 04:13:25;;;;;;;0.85;0.85;;;4.10;99.90;;;5.26;100.00;-20825.28;5031984;28;20252;-67
2021/03/17 04:16:30;;;;;;;0.60;0.50;;;4.10;99.90;;;5.17;100.00;-20822.78;5024192;28;20198;-68
2021/03/17 04:19:35;;;;;;;0.60;0.52;;;4.10;99.90;;;5.10;100.00;-20820.97;5032068;28;20221;-67
2021/03/17 04:22:41;;;;;;;1.00;1.00;;;4.00;99.90;;;5.25;100.00;-20825.16;5031241;28;20197;-68
2021/03/17 04:25:48;;;;;;;0.60;0.60;;;4.10;99.90;;;5.28;100.00;-20825.84;5032921;28;20602;-67
2021/03/17 04:28:54;;;;;;;0.90;0.90;;;4.10;99.90;;;5.23;100.00;-20824.59;5032999;28;20404;-68
2021/03/17 04:31:59;;;;;;;0.70;0.60;;;4.10;99.90;;;5.22;100.00;-20824.31;5022639;28;20333;-68
2021/03/17 04:35:03;;;;;;;0.60;0.60;;;4.10;99.90;;;5.31;100.00;-20826.69;5032878;28;20228;-68
2021/03/17 04:38:13;;;;;;;0.60;0.50;;;4.00;99.90;;;5.24;100.00;-20824.88;5031991;28;20285;-69
2021/03/17 04:41:17;;;;;;;0.60;0.50;;;4.00;99.90;;;5.12;100.00;-20821.53;5028019;28;20251;-69
2021/03/17 04:44:21;;;;;;;0.60;0.60;;;4.00;99.90;;;5.16;100.00;-20822.66;5037620;28;20247;-69
2021/03/17 04:47:26;;;;;;;0.70;0.60;;;4.00;99.90;;;5.12;100.00;-20821.53;5036818;28;20209;-68
2021/03/17 04:50:30;;;;;;;0.70;0.60;;;3.90;99.90;;;5.01;100.00;-20818.47;5036607;28;20177;-68
2021/03/17 04:53:36;;;;;;;0.70;0.60;;;3.90;99.90;;;4.94;100.00;-20816.66;5035476;28;20256;-68
2021/03/17 04:56:43;;;;;;;0.60;0.50;;;3.80;99.90;;;4.93;100.00;-20816.38;5034569;28;20244;-69
2021/03/17 04:59:49;;;;;;;1.08;1.08;;;3.80;99.90;;;4.82;100.00;-20813.47;5036052;28;20258;-68
2021/03/17 05:02:56;;;;;;;0.70;0.60;;;3.70;99.90;;;4.85;100.00;-20814.28;5034273;28;20243;-67
2021/03/17 05:06:04;;;;;;;0.60;0.60;;;3.70;99.90;;;4.89;100.00;-20815.13;5045704;28;20197;-68
2021/03/17 05:09:09;;;;;;;0.60;0.60;;;3.80;99.90;;;4.92;100.00;-20816.09;5036369;28;20221;-68
2021/03/17 05:12:15;;;;;;;0.65;0.60;;;3.80;99.90;;;4.93;100.00;-20816.25;5034658;28;20209;-67
2021/03/17 05:15:21;;;;;;;0.60;0.50;;;3.80;99.90;;;4.85;100.00;-20814.28;5034979;28;20818;-68
2021/03/17 05:18:26;;;;;;;0.70;0.60;;;3.80;99.90;;;5.01;100.00;-20818.47;5035939;28;20253;-66
2021/03/17 05:21:32;;;;;;;0.70;0.60;;;3.80;99.90;;;5.05;100.00;-20819.59;5033274;28;20594;-69
2021/03/17 05:24:38;;;;;;;0.73;0.73;;;3.90;99.90;;;5.02;100.00;-20818.75;5036001;28;20274;-68
2021/03/17 05:27:42;;;;;;;0.60;0.50;;;3.80;99.90;;;5.07;100.00;-20820.13;5035932;28;20201;-67
2021/03/17 05:30:50;;;;;;;0.70;0.68;;;3.80;99.90;;;4.97;100.00;-20817.50;5034596;28;20247;-69
2021/03/17 05:33:54;;;;;;;0.70;0.60;;;3.80;99.90;;;4.91;100.00;-20815.81;5031836;28;20260;-68
2021/03/17 05:36:57;;;;;;;0.70;0.60;;;3.70;99.90;;;4.81;100.00;-20813.03;5034823;28;20220;-67
2021/03/17 05:40:07;;;;;;;0.60;0.55;;;3.70;99.90;;;4.90;100.00;-20815.56;5035179;28;20196;-68
2021/03/17 05:43:11;;;;;;;0.60;0.50;;;3.70;99.90;;;4.98;100.00;-20817.63;5034385;28;20201;-68
2021/03/17 05:46:15;;;;;;;0.60;0.60;;;3.70;99.90;;;4.78;100.00;-20812.34;5024880;28;20201;-68
2021/03/17 05:49:19;;;;;;;0.63;0.60;;;3.70;99.90;;;4.85;100.00;-20814.28;5035064;28;20217;-68
2021/03/17 05:52:23;;;;;;;0.60;0.50;;;3.70;99.90;;;4.77;100.00;-20811.94;5033565;28;20212;-68
2021/03/17 05:55:28;;;;;;;1.17;1.08;;;3.70;99.90;;;4.92;100.00;-20816.09;5035502;28;20177;-69
2021/03/17 05:58:32;;;;;;;0.60;0.60;;;3.70;99.90;;;4.80;100.00;-20812.91;5034928;28;20545;-67
2021/03/17 06:01:36;;;;;;;1.35;1.25;;;3.70;99.90;;;4.87;100.00;-20814.56;5034091;28;20288;-67
2021/03/17 06:04:41;;;;;;;0.60;0.50;;;3.70;99.90;;;4.99;100.00;-20818.06;5032993;28;20245;-67
2021/03/17 06:07:54;;;;;;;0.60;0.60;;;3.70;99.90;;;4.95;100.00;-20816.81;5030714;28;20205;-67
2021/03/17 06:11:00;;;;;;;0.60;0.60;;;3.70;99.90;;;4.83;100.00;-20813.75;5033013;28;20210;-67
2021/03/17 06:14:12;;;;;;;0.60;0.50;;;3.70;99.90;;;5.01;100.00;-20818.63;5033892;28;20193;-67
2021/03/17 06:17:22;;;;;;;0.60;0.60;;;3.70;99.90;;;4.88;100.00;-20814.84;5032855;28;20560;-67
2021/03/17 06:20:26;;;;;;;0.60;0.60;;;3.80;99.90;;;4.90;100.00;-20815.41;5034329;28;20333;-68
2021/03/17 06:23:30;;;;;;;0.60;0.52;;;3.80;99.90;;;4.92;100.00;-20816.09;5031740;28;20256;-68
2021/03/17 06:26:37;;;;;;;0.60;0.50;;;3.80;99.90;;;4.79;100.00;-20812.63;5031647;28;20308;-68
2021/03/17 06:29:41;;;;;;;0.60;0.60;;;3.80;99.90;;;5.02;100.00;-20818.75;5032325;28;20229;-69
2021/03/17 06:32:45;;;;;;;0.60;0.50;;;3.80;99.90;;;4.94;100.00;-20816.66;5030479;28;20641;-67
2021/03/17 06:35:48;;;;;;;0.60;0.50;;;3.80;99.90;;;5.00;100.00;-20818.19;5025957;28;20278;-67
2021/03/17 06:39:06;;;;;;;0.70;0.60;;;3.80;99.90;;;4.98;100.00;-20817.63;5031237;28;20753;-68
2021/03/17 06:42:11;;;;;;;0.60;0.60;;;3.90;99.90;;;5.14;100.00;-20821.94;5026959;28;20666;-68
2021/03/17 06:45:27;;;;;;;0.70;0.60;;;3.90;99.90;;;5.19;100.00;-20823.34;5032541;28;20240;-67
2021/03/17 06:48:32;;;;;;;0.60;0.60;;;3.90;99.90;;;5.19;100.00;-20823.34;5032579;28;20329;-68
2021/03/17 06:51:36;;;;;;;0.60;0.50;;;4.00;99.90;;;5.07;100.00;-20820.13;5025088;28;20256;-67
2021/03/17 06:54:39;;;;;;;0.70;0.60;;;4.00;99.90;;;5.25;100.00;-20825.16;5034063;28;20201;-68
2021/03/17 06:57:47;;;;;;;0.68;0.60;;;4.00;99.90;;;5.18;100.00;-20823.19;5032021;28;20197;-68
2021/03/17 07:00:50;;;;;;;0.60;0.50;;;4.00;99.90;;;5.28;100.00;-20825.84;5025823;28;20301;-68
2021/03/17 07:03:55;;;;;;;0.60;0.50;;;4.00;99.90;;;5.25;100.00;-20825.16;5031676;28;20755;-68
2021/03/17 07:07:02;;;;;;;0.60;0.60;;;4.10;99.90;;;5.25;100.00;-20825.16;5030418;28;20248;-67
2021/03/17 07:10:07;;;;;;;0.60;0.50;;;4.10;99.90;;;5.28;100.00;-20826.00;5032440;28;20196;-67
2021/03/17 07:13:14;;;;;;;0.60;0.50;;;4.10;99.90;;;5.22;100.00;-20824.31;5033257;28;20216;-67
2021/03/17 07:16:32;;;;;;;0.60;0.50;;;4.10;99.90;;;5.19;100.00;-20823.50;5024151;28;20236;-67
2021/03/17 07:19:38;;;;;;;0.60;0.50;;;4.10;99.90;;;5.23;100.00;-20824.59;5029065;28;20737;-67
2021/03/17 07:22:41;;;;;;;0.60;0.50;;;4.10;99.90;;;5.36;100.00;-20827.94;5031879;28;20217;-69
2021/03/17 07:26:10;;;;;;;0.70;0.60;;;4.10;99.90;;;5.37;100.00;-20828.34;5032591;28;20489;-69
2021/03/17 07:29:16;;;;;;;0.63;0.60;;;4.10;99.90;;;5.50;100.00;-20831.84;5030432;28;20510;-69
2021/03/17 07:31:47;;;;;;;0.70;0.70;;;4.20;99.90;;;5.49;100.00;-20831.56;5028884;28;20473;-69
2021/03/17 07:34:25;;;;;;;0.60;0.50;;;4.20;99.90;;;5.63;100.00;-20835.44;5026838;28;20472;-69
2021/03/17 07:36:56;;;;;;;0.60;0.60;;;4.30;99.90;;;5.55;100.00;-20833.22;5027547;28;20193;-70
2021/03/17 07:39:26;;;;;;;0.60;0.60;;;4.30;99.90;;;5.56;100.00;-20833.50;5031669;28;20212;-69
2021/03/17 07:41:57;;;;;;;0.60;0.50;;;4.30;99.90;;;5.71;100.00;-20837.69;5032942;28;20436;-69
2021/03/17 07:44:27;;;;;;;0.70;0.63;;;4.30;99.90;;;5.90;100.00;-20842.81;5033145;28;20440;-69
2021/03/17 07:46:56;;;;;;;0.60;0.53;;;4.40;99.90;;;5.78;100.00;-20839.63;5031145;28;20453;-69
2021/03/17 07:49:41;;;;;;;0.60;0.50;;;4.60;99.90;;;6.18;100.00;-20850.47;5033023;28;20455;-67
2021/03/17 07:52:17;;;;;;;1.53;1.43;;;4.70;99.90;;;6.17;100.00;-20850.06;5032369;28;20461;-68
2021/03/17 07:54:50;;;;;;;0.60;0.50;;;4.80;99.90;;;6.42;100.00;-20856.88;5032559;28;20440;-68
2021/03/17 07:57:20;;;;;;;0.60;0.50;;;4.80;99.90;;;6.41;100.00;-20856.59;5032441;28;20441;-68
2021/03/17 07:59:55;;;;;;;0.60;0.50;;;4.70;99.90;;;6.28;100.00;-20853.13;5032449;28;20415;-67
2021/03/17 08:02:23;;;;;;;0.60;0.60;;;4.60;99.90;;;6.00;100.00;-20845.63;5033336;28;20432;-67
2021/03/17 08:04:52;;;;;;;0.60;0.50;;;4.70;99.90;;;6.29;100.00;-20853.53;5031500;28;20874;-71
2021/03/17 08:07:20;;;;;;;0.60;0.50;;;4.80;99.90;;;6.49;100.00;-20858.97;5032271;28;20441;-68
2021/03/17 08:09:49;;;;;;;0.90;0.90;;;4.90;99.90;;;6.66;100.00;-20863.53;5032961;28;20448;-68
2021/03/17 08:12:17;;;;;;;0.70;0.60;;;5.20;99.90;;;7.12;100.00;-20876.06;5032657;28;20460;-68
2021/03/17 08:14:46;;;;;;;0.60;0.50;;;5.40;99.90;;;7.28;100.00;-20880.34;5032486;28;20425;-67
2021/03/17 08:17:30;;;;;;;0.70;0.60;;;5.50;99.90;;;7.26;100.00;-20879.94;5026018;28;20828;-67
2021/03/17 08:20:18;;;;;;;1.80;1.70;;;5.40;99.90;;;7.52;100.00;-20886.75;5033294;28;20432;-67
2021/03/17 08:22:47;;;;;;;0.70;0.60;;;5.70;99.90;;;7.77;100.00;-20893.53;5032880;28;20480;-67
2021/03/17 08:25:38;;;;;;;0.60;0.50;;;5.80;99.90;;;7.60;100.00;-20889.09;5036473;28;20451;-68
2021/03/17 08:28:19;;;;;;;0.70;0.60;;;5.70;99.90;;;7.47;100.00;-20885.63;5035955;28;20825;-67
2021/03/17 08:30:49;;;;;;;0.70;0.60;;;5.90;99.90;;;7.89;100.00;-20897.00;5035759;28;20426;-67
2021/03/17 08:33:34;;;;;;;0.70;0.60;;;5.80;99.90;;;7.60;100.00;-20889.09;5036399;28;20457;-67
2021/03/17 08:36:08;;;;;;;1.03;0.93;;;5.90;99.90;;;7.39;100.00;-20883.41;5033524;28;20928;-67
2021/03/17 08:39:02;;;;;;;0.60;0.50;;;5.80;99.90;;;7.28;100.00;-20880.22;5036387;28;20810;-67
2021/03/17 08:41:53;;;;;;;0.63;0.50;;;5.50;99.90;;;6.84;100.00;-20868.41;5036242;28;20512;-67
2021/03/17 08:44:23;;;;;;;0.70;0.60;;;5.30;99.90;;;6.77;100.00;-20866.59;5035929;28;20420;-68
2021/03/17 08:46:52;;;;;;;1.23;1.13;;;5.40;99.90;;;7.12;100.00;-20876.06;5034977;28;20449;-68
2021/03/17 08:49:32;;;;;;;0.90;0.90;;;5.60;99.90;;;7.40;100.00;-20883.53;5068606;28;20465;-67
2021/03/17 08:52:02;;;;;;;0.70;0.60;;;5.80;99.90;;;7.43;100.00;-20884.38;5036191;28;20494;-67
2021/03/17 08:55:02;;;;;;;1.10;1.00;;;5.80;99.90;;;7.33;100.00;-20881.75;5034983;28;21109;-66
2021/03/17 08:57:52;;;;;;;0.70;0.60;;;5.80;99.90;;;6.61;100.00;-20862.16;5034729;28;20449;-68
2021/03/17 09:00:55;;;;;;;0.70;0.60;;;5.70;99.90;;;5.35;100.00;-20827.81;5016543;28;20421;-68
2021/03/17 09:03:48;;;;;;;1.27;0.80;;;4.80;99.90;;;5.15;100.00;-20822.22;5022348;28;20448;-69
2021/03/17 09:06:28;;;;;;;0.60;0.60;;;4.30;99.90;;;5.05;100.00;-20819.72;5033302;28;20551;-68
2021/03/17 09:09:00;;;;;;;0.70;0.60;;;4.10;99.90;;;5.50;100.00;-20831.97;5036127;28;20883;-69
2021/03/17 09:11:54;;;;;;;0.70;0.60;;;4.30;99.90;;;7.01;100.00;-20873.13;5035685;28;20450;-69
2021/03/17 09:14:27;;;;;;;0.70;0.50;;;5.50;99.90;;;7.99;100.00;-20899.66;5034142;28;20236;-68
2021/03/17 09:17:29;;;;;;;0.70;0.60;;;6.10;99.90;;;8.01;100.00;-20900.19;5035004;28;20445;-67
2021/03/17 09:20:11;;;;;;;0.70;0.60;;;6.00;99.90;;;8.03;100.00;-20900.75;5067609;28;20816;-68
2021/03/17 09:23:02;;;;;;;0.70;0.50;;;6.00;99.90;;;7.84;100.00;-20895.47;5033378;28;20445;-68
2021/03/17 09:25:33;;;;;;;0.70;0.50;;;5.80;99.90;;;7.65;100.00;-20890.50;5035174;28;20498;-68
2021/03/17 09:28:05;;;;;;;0.70;0.60;;;5.80;99.90;;;7.08;100.00;-20874.81;5033591;28;20448;-68
2021/03/17 09:30:41;;;;;;;0.70;0.70;;;5.70;99.90;;;7.18;100.00;-20877.72;5034562;28;20425;-67
2021/03/17 09:33:14;;;;;;;0.70;0.60;;;5.60;99.90;;;7.47;100.00;-20885.50;5034722;28;20473;-67
2021/03/17 09:35:48;;;;;;;0.70;0.60;;;5.80;99.90;;;7.98;100.00;-20899.50;5034679;28;20809;-69
2021/03/17 09:38:19;;;;;;;0.70;0.50;;;6.00;99.90;;;7.57;100.00;-20888.28;5033620;28;20435;-68
2021/03/17 09:40:55;;;;;;;0.70;0.50;;;5.90;99.90;;;7.53;100.00;-20887.03;5035682;28;20442;-68
2021/03/17 09:43:39;;;;;;;0.70;0.60;;;5.90;99.90;;;8.67;100.00;-20918.25;5035337;28;20802;-68
2021/03/17 09:46:23;;;;;;;0.70;0.60;;;6.40;99.90;;;10.09;100.00;-20956.75;5033943;28;20440;-67
2021/03/17 09:48:54;;;;;;;0.70;0.60;;;7.40;99.90;;;9.15;100.00;-20931.13;5034256;28;20807;-70
2021/03/17 09:51:25;;;;;;;0.70;0.60;;;7.20;99.90;;;9.92;100.00;-20952.03;5031786;28;20544;-68
2021/03/17 09:53:56;;;;;;;0.70;0.60;;;7.80;99.90;;;11.76;100.00;-21001.84;5034080;28;20542;-68
2021/03/17 09:56:36;;;;;;;0.70;0.60;;;8.50;99.90;;;11.34;100.00;-20990.50;5033505;28;20545;-68
2021/03/17 09:59:29;;;;;;;0.80;0.70;;;8.80;99.90;;;11.20;100.00;-20986.63;5034259;28;20934;-68
2021/03/17 10:01:59;;;;;;;1.67;1.27;;;8.30;99.90;;;9.72;100.00;-20946.50;5021703;28;21011;-69
2021/03/17 10:04:30;;;;;;;0.80;0.80;;;7.50;99.90;;;8.70;100.00;-20918.94;5047292;28;21010;-70
2021/03/17 10:06:59;;;;;;;0.70;0.60;;;7.20;99.90;;;8.65;100.00;-20917.69;5031375;28;20449;-70
2021/03/17 10:09:29;;;;;;;0.70;0.60;;;6.80;99.90;;;8.02;100.00;-20900.34;5033201;28;20445;-69
2021/03/17 10:12:03;;;;;;;0.70;0.60;;;6.50;99.90;;;7.70;100.00;-20891.75;5034443;28;20495;-68
2021/03/17 10:14:31;;;;;;;0.80;0.70;;;6.30;99.90;;;8.34;100.00;-20909.09;5034245;28;20838;-67
2021/03/17 10:17:01;;;;;;;0.70;0.60;;;6.40;99.90;;;8.79;100.00;-20921.28;5031263;28;20455;-67
2021/03/17 10:19:30;;;;;;;0.70;0.67;;;6.80;99.90;;;10.27;100.00;-20961.47;5033989;28;20468;-68
2021/03/17 10:21:58;;;;;;;0.77;0.70;;;7.50;99.90;;;10.02;100.00;-20954.81;5026932;28;20486;-68
2021/03/17 10:24:40;;;;;;;0.70;0.70;;;7.80;99.90;;;11.96;100.00;-21007.22;5033620;28;20456;-67
2021/03/17 10:27:10;;;;;;;0.70;0.60;;;8.80;99.90;;;12.36;100.00;-21018.13;5030597;28;20443;-68
2021/03/17 10:29:38;;;;;;;0.80;0.70;;;8.70;99.90;;;11.18;100.00;-20986.22;5033896;28;20422;-68
2021/03/17 10:32:07;;;;;;;0.70;0.60;;;8.00;99.90;;;9.61;100.00;-20943.75;5034231;28;20449;-68
2021/03/17 10:34:37;;;;;;;0.70;0.60;;;7.30;99.90;;;8.70;100.00;-20919.06;5034149;28;20456;-68
2021/03/17 10:37:09;;;;;;;0.73;0.70;;;6.90;99.90;;;8.38;100.00;-20910.34;5030626;28;20466;-68
2021/03/17 10:39:38;;;;;;;0.70;0.60;;;6.60;99.90;;;7.88;100.00;-20896.59;5023000;28;20432;-68
2021/03/17 10:42:20;;;;;;;0.70;0.60;;;6.40;99.90;;;7.86;100.00;-20896.03;5028674;28;20428;-67
2021/03/17 10:45:06;;;;;;;0.70;0.60;;;6.40;99.90;;;7.99;100.00;-20899.66;5033034;28;20527;-67
2021/03/17 10:47:33;;;;;;;0.70;0.60;;;6.50;99.90;;;7.90;100.00;-20897.16;5032199;28;20453;-68
2021/03/17 10:50:02;;;;;;;0.70;0.60;;;6.40;99.90;;;7.89;100.00;-20896.88;5033792;28;20452;-67
2021/03/17 10:52:34;;;;;;;0.70;0.60;;;6.40;99.90;;;7.65;100.00;-20890.50;5033059;28;20820;-69
2021/03/17 10:55:18;;;;;;;0.70;0.60;;;6.30;99.90;;;7.86;100.00;-20896.19;5033977;28;20421;-68
2021/03/17 10:57:47;;;;;;;0.70;0.70;;;6.40;99.90;;;8.32;100.00;-20908.53;5032924;28;20450;-69
2021/03/17 11:00:21;;;;;;;0.70;0.60;;;6.40;99.90;;;8.05;100.00;-20901.31;5048848;28;20417;-69
2021/03/17 11:02:50;;;;;;;0.70;0.70;;;6.60;99.90;;;8.31;100.00;-20908.25;5033652;28;20738;-69
2021/03/17 11:05:27;;;;;;;0.70;0.60;;;6.60;99.90;;;8.37;100.00;-20909.91;5033498;28;20435;-69
2021/03/17 11:08:12;;;;;;;0.70;0.60;;;6.40;99.90;;;8.27;100.00;-20907.13;5031748;28;20817;-69
2021/03/17 11:11:04;;;;;;;0.70;0.60;;;6.50;99.90;;;7.84;100.00;-20895.63;5025004;28;20437;-69
2021/03/17 11:13:37;;;;;;;0.70;0.53;;;6.40;99.90;;;6.84;100.00;-20868.41;5032173;28;20522;-71
2021/03/17 11:16:11;;;;;;;0.70;0.60;;;5.60;99.90;;;6.18;100.00;-20850.47;5028804;28;20449;-69
2021/03/17 11:18:47;;;;;;;0.70;0.60;;;5.20;99.90;;;6.09;100.00;-20847.97;5032156;28;20487;-67
2021/03/17 11:21:24;;;;;;;0.70;0.60;;;5.20;99.90;;;6.08;100.00;-20847.69;5028959;28;20908;-69
2021/03/17 11:23:52;;;;;;;0.70;0.60;;;5.20;99.90;;;6.33;100.00;-20854.50;5030347;28;20436;-68
2021/03/17 11:26:28;;;;;;;0.60;0.60;;;5.10;99.90;;;6.58;100.00;-20861.19;5030679;28;20539;-68
2021/03/17 11:28:57;;;;;;;0.70;0.60;;;5.30;99.90;;;6.52;100.00;-20859.66;5031126;28;20449;-69
2021/03/17 11:31:35;;;;;;;0.70;0.50;;;5.40;99.90;;;6.83;100.00;-20868.00;5025219;28;20429;-68
2021/03/17 11:34:06;;;;;;;0.67;0.60;;;5.30;99.90;;;7.22;100.00;-20878.69;5031245;28;20476;-69
2021/03/17 11:36:33;;;;;;;0.70;0.60;;;5.40;99.90;;;7.60;100.00;-20889.09;5029723;28;20504;-68
2021/03/17 11:39:05;;;;;;;0.70;0.60;;;5.50;99.90;;;7.35;100.00;-20882.16;5032951;28;20437;-69
2021/03/17 11:41:34;;;;;;;0.70;0.60;;;5.90;99.90;;;7.53;100.00;-20887.16;5032944;28;20452;-69
2021/03/17 11:44:02;;;;;;;0.70;0.50;;;6.10;99.90;;;7.94;100.00;-20898.41;5024197;28;20428;-69
2021/03/17 11:46:29;;;;;;;0.70;0.60;;;6.30;99.90;;;8.20;100.00;-20905.34;5030477;28;20491;-69
2021/03/17 11:48:57;;;;;;;0.70;0.60;;;6.60;99.90;;;9.25;100.00;-20933.75;5032256;28;20561;-69
2021/03/17 11:51:26;;;;;;;0.70;0.60;;;7.30;99.90;;;10.04;100.00;-20955.38;5032404;28;20446;-68
2021/03/17 11:53:54;;;;;;;0.70;0.60;;;7.90;99.90;;;10.49;100.00;-20967.41;5030609;28;20444;-69
2021/03/17 11:56:21;;;;;;;0.70;0.60;;;8.20;99.90;;;9.70;100.00;-20945.94;5034875;28;20439;-69
2021/03/17 11:58:49;;;;;;;0.70;0.70;;;7.90;99.90;;;10.22;100.00;-20960.06;5052785;28;20878;-68
2021/03/17 12:01:17;;;;;;;0.70;0.60;;;7.70;99.90;;;10.07;100.00;-20956.06;5029085;28;20426;-69
2021/03/17 12:03:49;;;;;;;0.70;0.60;;;7.90;99.90;;;9.53;100.00;-20941.53;5035390;28;20460;-67